Time;durP1;ratioP1;P1;durP2;ratioP2;P2;SDS_P1;SDS_P2;PMS_P1;PMS_P2;Temp;Humidity;BMP_temperature;BMP_pressure;BME280_temperature;BME280_humidity;BME280_pressure;Samples;Min_cycle;Max_cycle;Signal;HPM_P1;HPM_P2
2022/03/25 00:01:37;;;;;;;;;;;23.20;35.50;;;;;;5066205;28;20368;-54
2022/03/25 00:04:03;;;;;;;;;;;23.20;35.50;;;;;;5069263;28;20019;-54
2022/03/25 00:06:28;;;;;;;;;;;23.20;35.50;;;;;;5065901;28;19925;-54
2022/03/25 00:08:54;;;;;;;;;;;23.20;35.60;;;;;;5066391;28;20388;-54
2022/03/25 00:11:19;;;;;;;;;;;23.20;35.50;;;;;;5068260;28;20407;-54
2022/03/25 00:13:44;;;;;;;;;;;23.20;35.50;;;;;;5069059;28;20292;-54
2022/03/25 00:16:10;;;;;;;;;;;23.20;35.50;;;;;;5070315;28;20351;-54
2022/03/25 00:18:35;;;;;;;;;;;23.20;35.50;;;;;;5068430;28;19968;-54
2022/03/25 00:21:01;;;;;;;;;;;23.20;35.40;;;;;;5070176;28;19913;-55
2022/03/25 00:23:26;;;;;;;;;;;23.20;35.50;;;;;;5067834;28;19988;-54
2022/03/25 00:25:52;;;;;;;;;;;23.20;35.50;;;;;;5068895;28;20387;-54
2022/03/25 00:28:17;;;;;;;;;;;23.20;35.50;;;;;;5069013;28;19912;-55
2022/03/25 00:30:43;;;;;;;;;;;23.20;35.40;;;;;;5068792;28;20291;-54
2022/03/25 00:33:09;;;;;;;;;;;23.20;35.40;;;;;;5067083;28;20429;-54
2022/03/25 00:35:34;;;;;;;;;;;23.20;35.30;;;;;;5069140;28;19920;-54
2022/03/25 00:38:00;;;;;;;;;;;23.20;35.40;;;;;;5067985;28;20395;-54
2022/03/25 00:40:26;;;;;;;;;;;23.10;35.40;;;;;;5067687;28;19920;-54
2022/03/25 00:42:51;;;;;;;;;;;23.10;35.40;;;;;;5068327;28;19927;-54
2022/03/25 00:45:17;;;;;;;;;;;23.10;35.30;;;;;;5069440;28;20364;-54
2022/03/25 00:47:43;;;;;;;;;;;23.10;35.40;;;;;;5068749;28;19923;-54
2022/03/25 00:50:08;;;;;;;;;;;23.10;35.40;;;;;;5068948;28;20030;-54
2022/03/25 00:52:34;;;;;;;;;;;23.10;35.50;;;;;;5068087;28;19982;-54
2022/03/25 00:54:59;;;;;;;;;;;23.10;35.40;;;;;;5067982;28;19970;-54
2022/03/25 00:57:25;;;;;;;;;;;23.10;35.40;;;;;;5069174;28;19932;-54
2022/03/25 00:59:50;;;;;;;;;;;23.10;35.40;;;;;;5067836;28;20007;-55
2022/03/25 01:02:16;;;;;;;;;;;23.10;35.60;;;;;;5067288;28;19963;-54
2022/03/25 01:04:41;;;;;;;;;;;23.00;35.40;;;;;;5068981;28;19917;-54
2022/03/25 01:07:07;;;;;;;;;;;23.00;35.40;;;;;;5065058;28;19920;-53
2022/03/25 01:09:32;;;;;;;;;;;23.00;35.30;;;;;;5065177;28;19912;-54
2022/03/25 01:11:58;;;;;;;;;;;23.00;35.40;;;;;;5067300;28;19916;-54
2022/03/25 01:14:23;;;;;;;;;;;23.00;35.40;;;;;;5067941;28;19916;-54
2022/03/25 01:16:49;;;;;;;;;;;23.00;35.30;;;;;;5071271;28;19942;-53
2022/03/25 01:19:14;;;;;;;;;;;22.90;35.30;;;;;;5072367;28;19931;-54
2022/03/25 01:21:40;;;;;;;;;;;22.90;35.40;;;;;;5070658;28;19965;-54
2022/03/25 01:24:06;;;;;;;;;;;22.90;35.40;;;;;;5071437;28;19920;-54
2022/03/25 01:26:31;;;;;;;;;;;22.90;35.50;;;;;;5072734;28;19913;-54
2022/03/25 01:28:57;;;;;;;;;;;22.90;35.50;;;;;;5072281;28;20394;-54
2022/03/25 01:31:22;;;;;;;;;;;22.80;35.40;;;;;;5072086;28;20013;-54
2022/03/25 01:33:47;;;;;;;;;;;22.90;35.40;;;;;;5072384;28;19919;-53
2022/03/25 01:36:13;;;;;;;;;;;22.90;35.40;;;;;;5070593;28;20391;-54
2022/03/25 01:38:39;;;;;;;;;;;22.90;35.50;;;;;;5071619;28;19920;-54
2022/03/25 01:41:05;;;;;;;;;;;22.90;35.50;;;;;;5072363;28;19916;-54
2022/03/25 01:43:30;;;;;;;;;;;22.80;35.40;;;;;;5071145;28;19919;-54
2022/03/25 01:45:56;;;;;;;;;;;22.80;35.50;;;;;;5072828;28;19913;-55
2022/03/25 01:48:22;;;;;;;;;;;22.80;35.50;;;;;;5071610;28;19955;-54
2022/03/25 01:50:47;;;;;;;;;;;22.80;35.50;;;;;;5072279;28;20267;-55
2022/03/25 01:53:13;;;;;;;;;;;22.70;35.50;;;;;;5071651;28;19913;-54
2022/03/25 01:55:39;;;;;;;;;;;22.70;35.50;;;;;;5070921;28;19909;-54
2022/03/25 01:58:05;;;;;;;;;;;22.70;35.50;;;;;;5071797;28;19960;-54
2022/03/25 02:00:31;;;;;;;;;;;22.70;35.50;;;;;;5069047;28;19916;-55
2022/03/25 02:02:57;;;;;;;;;;;22.70;35.50;;;;;;5071503;28;19977;-55
2022/03/25 02:05:22;;;;;;;;;;;22.70;35.70;;;;;;5072084;28;20011;-55
2022/03/25 02:07:48;;;;;;;;;;;22.70;35.70;;;;;;5065374;28;19927;-54
2022/03/25 02:10:14;;;;;;;;;;;22.60;35.60;;;;;;5071518;28;20303;-54
2022/03/25 02:12:40;;;;;;;;;;;22.60;35.60;;;;;;5068190;28;19921;-54
2022/03/25 02:15:06;;;;;;;;;;;22.60;35.60;;;;;;5066574;28;19947;-54
2022/03/25 02:17:32;;;;;;;;;;;22.60;35.60;;;;;;5071855;28;19974;-54
2022/03/25 02:19:57;;;;;;;;;;;22.50;35.50;;;;;;5070864;28;19920;-54
2022/03/25 02:22:23;;;;;;;;;;;22.60;35.60;;;;;;5071470;28;19917;-54
2022/03/25 02:24:49;;;;;;;;;;;22.60;35.60;;;;;;5070574;28;20019;-55
2022/03/25 02:27:16;;;;;;;;;;;22.60;35.60;;;;;;5070371;28;19958;-54
2022/03/25 02:29:42;;;;;;;;;;;22.70;35.70;;;;;;5070937;28;19917;-54
2022/03/25 02:32:07;;;;;;;;;;;22.80;35.60;;;;;;5069096;28;19973;-55
2022/03/25 02:34:33;;;;;;;;;;;23.00;35.50;;;;;;5069710;28;19935;-54
2022/03/25 02:36:58;;;;;;;;;;;23.00;35.10;;;;;;5070574;28;19924;-54
2022/03/25 02:39:24;;;;;;;;;;;23.10;35.70;;;;;;5071086;28;19916;-54
2022/03/25 02:41:49;;;;;;;;;;;23.20;35.00;;;;;;5070674;28;20396;-54
2022/03/25 02:44:14;;;;;;;;;;;23.20;34.90;;;;;;5070319;28;20368;-55
2022/03/25 02:46:40;;;;;;;;;;;23.30;34.80;;;;;;5071230;28;20283;-54
2022/03/25 02:49:05;;;;;;;;;;;23.30;34.80;;;;;;5070562;28;19916;-54
2022/03/25 02:51:31;;;;;;;;;;;23.30;34.80;;;;;;5068935;28;20348;-54
2022/03/25 02:53:56;;;;;;;;;;;23.30;34.80;;;;;;5069704;28;19919;-55
2022/03/25 02:56:24;;;;;;;;;;;23.20;34.80;;;;;;5069770;28;19971;-54
2022/03/25 02:58:50;;;;;;;;;;;23.20;34.80;;;;;;5070866;28;20292;-54
2022/03/25 03:01:15;;;;;;;;;;;23.20;34.90;;;;;;5069828;28;19917;-54
2022/03/25 03:03:41;;;;;;;;;;;23.10;34.90;;;;;;5070091;28;20023;-54
2022/03/25 03:06:07;;;;;;;;;;;23.10;35.10;;;;;;5070421;28;19912;-54
2022/03/25 03:08:35;;;;;;;;;;;23.00;35.00;;;;;;5067559;28;19921;-54
2022/03/25 03:11:01;;;;;;;;;;;23.00;35.10;;;;;;5067519;28;19948;-54
2022/03/25 03:13:26;;;;;;;;;;;22.90;35.10;;;;;;5069616;28;20292;-54
2022/03/25 03:15:52;;;;;;;;;;;22.90;35.20;;;;;;5069766;28;19919;-55
2022/03/25 03:18:19;;;;;;;;;;;22.80;35.20;;;;;;5068023;28;19955;-54
2022/03/25 03:20:45;;;;;;;;;;;22.80;35.30;;;;;;5068502;28;19999;-55
2022/03/25 03:23:10;;;;;;;;;;;22.70;35.40;;;;;;5069338;28;20435;-54
2022/03/25 03:25:36;;;;;;;;;;;22.70;35.50;;;;;;5069618;28;20419;-55
2022/03/25 03:28:01;;;;;;;;;;;22.60;35.60;;;;;;5067479;28;19942;-54
2022/03/25 03:30:27;;;;;;;;;;;22.60;35.60;;;;;;5070853;28;20429;-54
2022/03/25 03:32:57;;;;;;;;;;;22.60;35.60;;;;;;5069439;28;20413;-54
2022/03/25 03:35:24;;;;;;;;;;;22.50;35.50;;;;;;5070908;28;19912;-54
2022/03/25 03:37:49;;;;;;;;;;;22.50;35.50;;;;;;5068848;28;20265;-54
2022/03/25 03:40:15;;;;;;;;;;;22.40;35.50;;;;;;5068812;28;19919;-54
2022/03/25 03:42:40;;;;;;;;;;;22.40;35.40;;;;;;5070062;28;19912;-54
2022/03/25 03:45:07;;;;;;;;;;;22.40;35.60;;;;;;5067865;28;19977;-54
2022/03/25 03:47:32;;;;;;;;;;;22.40;35.50;;;;;;5070203;28;19969;-54
2022/03/25 03:49:58;;;;;;;;;;;22.40;35.50;;;;;;5069403;28;19912;-53
2022/03/25 03:52:23;;;;;;;;;;;22.30;35.40;;;;;;5068491;28;20026;-54
2022/03/25 03:54:49;;;;;;;;;;;22.40;35.50;;;;;;5070349;28;19941;-54
2022/03/25 03:57:14;;;;;;;;;;;22.40;35.50;;;;;;5067516;28;20363;-53
2022/03/25 03:59:40;;;;;;;;;;;22.40;35.40;;;;;;5070270;28;20387;-54
2022/03/25 04:02:06;;;;;;;;;;;22.50;35.50;;;;;;5069038;28;19912;-54
2022/03/25 04:04:31;;;;;;;;;;;22.50;35.50;;;;;;5068960;28;20329;-53
2022/03/25 04:06:57;;;;;;;;;;;22.50;35.50;;;;;;5069436;28;19920;-53
2022/03/25 04:09:22;;;;;;;;;;;22.50;35.50;;;;;;5060814;28;19919;-54
2022/03/25 04:11:48;;;;;;;;;;;22.50;35.50;;;;;;5068777;28;20407;-54
2022/03/25 04:14:14;;;;;;;;;;;22.50;35.50;;;;;;5067722;28;20280;-54
2022/03/25 04:16:39;;;;;;;;;;;22.50;35.50;;;;;;5069092;28;19939;-54
2022/03/25 04:19:04;;;;;;;;;;;22.40;35.40;;;;;;5069711;28;19917;-54
2022/03/25 04:21:30;;;;;;;;;;;22.40;35.40;;;;;;5069257;28;19923;-53
2022/03/25 04:23:55;;;;;;;;;;;22.40;35.40;;;;;;5067629;28;19938;-54
2022/03/25 04:26:21;;;;;;;;;;;22.40;35.40;;;;;;5065740;28;19919;-53
2022/03/25 04:28:46;;;;;;;;;;;22.40;35.60;;;;;;5068964;28;19913;-54
2022/03/25 04:31:12;;;;;;;;;;;22.30;35.60;;;;;;5069504;28;19913;-54
2022/03/25 04:33:37;;;;;;;;;;;22.30;35.70;;;;;;5066193;28;19951;-54
2022/03/25 04:36:03;;;;;;;;;;;22.30;35.70;;;;;;5069405;28;20288;-54
2022/03/25 04:38:28;;;;;;;;;;;22.30;35.80;;;;;;5067800;28;19912;-54
2022/03/25 04:40:54;;;;;;;;;;;22.20;35.70;;;;;;5069115;28;19924;-54
2022/03/25 04:43:20;;;;;;;;;;;22.20;35.80;;;;;;5066918;28;19927;-54
2022/03/25 04:45:45;;;;;;;;;;;22.20;35.90;;;;;;5068628;28;19935;-53
2022/03/25 04:48:11;;;;;;;;;;;22.20;35.80;;;;;;5069230;28;19920;-54
2022/03/25 04:50:40;;;;;;;;;;;22.20;35.80;;;;;;5068659;28;20468;-54
2022/03/25 04:53:05;;;;;;;;;;;22.20;35.80;;;;;;5074266;28;20316;-55
2022/03/25 04:55:31;;;;;;;;;;;22.20;35.80;;;;;;5076082;28;19913;-54
2022/03/25 04:57:56;;;;;;;;;;;22.20;35.90;;;;;;5074260;28;20454;-54
2022/03/25 05:00:22;;;;;;;;;;;22.20;35.90;;;;;;5074612;28;20265;-55
2022/03/25 05:02:47;;;;;;;;;;;22.20;35.80;;;;;;5074732;28;19923;-55
2022/03/25 05:05:15;;;;;;;;;;;22.20;36.40;;;;;;5075158;28;19912;-54
2022/03/25 05:07:44;;;;;;;;;;;22.30;35.70;;;;;;5074582;28;20024;-55
2022/03/25 05:10:13;;;;;;;;;;;22.30;35.60;;;;;;5074110;28;20491;-55
2022/03/25 05:12:39;;;;;;;;;;;22.40;35.60;;;;;;5074834;28;19919;-54
2022/03/25 05:15:05;;;;;;;;;;;22.40;35.40;;;;;;5075857;28;20292;-55
2022/03/25 05:17:30;;;;;;;;;;;22.40;35.40;;;;;;5074465;28;19916;-54
2022/03/25 05:19:56;;;;;;;;;;;22.40;35.40;;;;;;5075569;28;19912;-54
2022/03/25 05:22:21;;;;;;;;;;;22.40;35.40;;;;;;5073549;28;19920;-54
2022/03/25 05:24:47;;;;;;;;;;;22.40;35.40;;;;;;5074797;28;19943;-54
2022/03/25 05:27:12;;;;;;;;;;;22.30;35.40;;;;;;5075563;28;19919;-54
2022/03/25 05:29:38;;;;;;;;;;;22.30;35.40;;;;;;5074214;28;20360;-54
2022/03/25 05:32:03;;;;;;;;;;;22.30;35.40;;;;;;5069100;28;20253;-55
2022/03/25 05:34:29;;;;;;;;;;;22.30;35.40;;;;;;5074120;28;19916;-54
2022/03/25 05:36:55;;;;;;;;;;;22.30;35.50;;;;;;5074790;28;19917;-54
2022/03/25 05:39:20;;;;;;;;;;;22.30;35.60;;;;;;5073709;28;20360;-54
2022/03/25 05:41:45;;;;;;;;;;;22.30;35.70;;;;;;5074601;28;19958;-54
2022/03/25 05:44:11;;;;;;;;;;;22.20;35.60;;;;;;5075808;28;19917;-54
2022/03/25 05:46:38;;;;;;;;;;;22.20;35.70;;;;;;5074770;28;19924;-55
2022/03/25 05:49:04;;;;;;;;;;;22.20;35.70;;;;;;5074242;28;19920;-55
2022/03/25 05:51:29;;;;;;;;;;;22.20;35.80;;;;;;5075504;28;19916;-55
2022/03/25 05:53:55;;;;;;;;;;;22.10;35.80;;;;;;5072816;28;19912;-54
2022/03/25 05:56:20;;;;;;;;;;;22.10;35.80;;;;;;5068853;28;19960;-54
2022/03/25 05:58:46;;;;;;;;;;;22.10;35.70;;;;;;5073225;28;19959;-54
2022/03/25 06:01:11;;;;;;;;;;;22.00;35.80;;;;;;5074179;28;19939;-54
2022/03/25 06:03:37;;;;;;;;;;;22.10;35.80;;;;;;5072410;28;19948;-54
2022/03/25 06:06:03;;;;;;;;;;;22.00;35.80;;;;;;5071139;28;20336;-55
2022/03/25 06:08:30;;;;;;;;;;;22.10;35.90;;;;;;5070949;28;19924;-54
2022/03/25 06:10:55;;;;;;;;;;;22.00;35.80;;;;;;5066047;28;19928;-54
2022/03/25 06:13:21;;;;;;;;;;;22.10;35.80;;;;;;5070349;28;19912;-54
2022/03/25 06:15:47;;;;;;;;;;;22.10;35.80;;;;;;5071761;28;19913;-54
2022/03/25 06:18:13;;;;;;;;;;;22.10;35.80;;;;;;5070428;28;20370;-55
2022/03/25 06:20:38;;;;;;;;;;;22.10;35.80;;;;;;5071688;28;20066;-55
2022/03/25 06:23:04;;;;;;;;;;;22.10;35.70;;;;;;5069989;28;19978;-55
2022/03/25 06:25:29;;;;;;;;;;;22.10;35.70;;;;;;5070910;28;19924;-54
2022/03/25 06:27:56;;;;;;;;;;;22.10;35.80;;;;;;5071479;28;19913;-54
2022/03/25 06:30:22;;;;;;;;;;;22.10;35.80;;;;;;5069441;28;19916;-55
2022/03/25 06:32:47;;;;;;;;;;;22.10;35.80;;;;;;5070954;28;19912;-55
2022/03/25 06:35:13;;;;;;;;;;;22.10;35.80;;;;;;5069557;28;19919;-55
2022/03/25 06:37:39;;;;;;;;;;;22.10;35.90;;;;;;5066970;28;19916;-54
2022/03/25 06:40:07;;;;;;;;;;;22.10;35.90;;;;;;5070569;28;19916;-54
2022/03/25 06:42:33;;;;;;;;;;;22.00;35.90;;;;;;5068850;28;19916;-54
2022/03/25 06:44:59;;;;;;;;;;;22.00;35.90;;;;;;5070013;28;20339;-55
2022/03/25 06:47:24;;;;;;;;;;;22.00;36.00;;;;;;5070786;28;19917;-54
2022/03/25 06:49:50;;;;;;;;;;;22.00;36.00;;;;;;5070143;28;19916;-54
2022/03/25 06:52:15;;;;;;;;;;;22.00;36.10;;;;;;5070582;28;20011;-54
2022/03/25 06:54:41;;;;;;;;;;;22.00;36.10;;;;;;5070261;28;19932;-54
2022/03/25 06:57:07;;;;;;;;;;;22.00;36.10;;;;;;5070333;28;20356;-54
2022/03/25 06:59:33;;;;;;;;;;;21.90;36.10;;;;;;5067860;28;22489;-54
2022/03/25 07:01:58;;;;;;;;;;;21.90;36.00;;;;;;5070108;28;19916;-54
2022/03/25 07:04:24;;;;;;;;;;;21.90;36.10;;;;;;5070530;28;20061;-54
2022/03/25 07:06:49;;;;;;;;;;;21.90;36.10;;;;;;5069669;28;20257;-54
2022/03/25 07:09:15;;;;;;;;;;;21.90;36.10;;;;;;5070627;28;19917;-54
2022/03/25 07:11:40;;;;;;;;;;;21.90;36.20;;;;;;5067927;28;19930;-55
2022/03/25 07:14:06;;;;;;;;;;;21.90;36.10;;;;;;5066457;28;19970;-54
2022/03/25 07:16:32;;;;;;;;;;;21.90;36.10;;;;;;5069762;28;20360;-54
2022/03/25 07:18:59;;;;;;;;;;;22.00;36.10;;;;;;5069711;28;20295;-55
2022/03/25 07:21:24;;;;;;;;;;;22.10;36.00;;;;;;5070213;28;19921;-54
2022/03/25 07:23:50;;;;;;;;;;;22.10;36.00;;;;;;5068926;28;19977;-54
2022/03/25 07:26:17;;;;;;;;;;;22.10;35.80;;;;;;5069877;28;20003;-55
2022/03/25 07:28:42;;;;;;;;;;;22.20;35.90;;;;;;5070275;28;19912;-55
2022/03/25 07:31:08;;;;;;;;;;;22.20;35.80;;;;;;5069186;28;19917;-55
2022/03/25 07:33:33;;;;;;;;;;;22.20;35.90;;;;;;5069803;28;20039;-55
2022/03/25 07:36:00;;;;;;;;;;;22.20;36.00;;;;;;5070171;28;20054;-55
2022/03/25 07:38:27;;;;;;;;;;;22.20;36.00;;;;;;5068203;28;19973;-54
2022/03/25 07:40:52;;;;;;;;;;;22.10;36.00;;;;;;5066705;28;19912;-55
2022/03/25 07:43:18;;;;;;;;;;;22.10;36.10;;;;;;5067923;28;19917;-54
2022/03/25 07:45:44;;;;;;;;;;;22.00;36.10;;;;;;5068961;28;19990;-56
2022/03/25 07:48:09;;;;;;;;;;;22.00;36.20;;;;;;5070073;28;20002;-56
2022/03/25 07:50:35;;;;;;;;;;;22.00;36.30;;;;;;5069332;28;20008;-54
2022/03/25 07:53:00;;;;;;;;;;;22.00;36.40;;;;;;5067588;28;20276;-56
2022/03/25 07:55:26;;;;;;;;;;;21.90;36.40;;;;;;5068213;28;19958;-54
2022/03/25 07:57:51;;;;;;;;;;;21.90;36.50;;;;;;5067719;28;19920;-54
2022/03/25 08:00:17;;;;;;;;;;;21.90;36.50;;;;;;5070994;28;20376;-55
2022/03/25 08:02:50;;;;;;;;;;;21.80;36.80;;;;;;5072682;28;19915;-55
2022/03/25 08:05:16;;;;;;;;;;;21.90;36.60;;;;;;5067126;28;19927;-55
2022/03/25 08:07:42;;;;;;;;;;;21.90;36.80;;;;;;5071016;28;19920;-56
2022/03/25 08:10:08;;;;;;;;;;;21.90;37.00;;;;;;5071892;28;19916;-54
2022/03/25 08:12:35;;;;;;;;;;;22.10;37.00;;;;;;5071670;28;19913;-55
2022/03/25 08:15:00;;;;;;;;;;;22.30;36.80;;;;;;5071581;28;20429;-54
2022/03/25 08:17:26;;;;;;;;;;;22.60;36.50;;;;;;5068589;28;19924;-54
2022/03/25 08:19:51;;;;;;;;;;;22.90;36.10;;;;;;5074184;28;20011;-53
2022/03/25 08:22:18;;;;;;;;;;;23.10;35.80;;;;;;5071773;28;20003;-54
2022/03/25 08:30:12;;;;;;;;;;;23.50;35.00;;;;;;5073135;28;20003;-55
2022/03/25 08:32:38;;;;;;;;;;;23.60;34.90;;;;;;5073714;28;19936;-54
2022/03/25 08:35:04;;;;;;;;;;;23.70;34.90;;;;;;5073792;28;19916;-55
2022/03/25 08:37:29;;;;;;;;;;;23.80;34.80;;;;;;5072104;28;19912;-53
2022/03/25 08:39:55;;;;;;;;;;;23.90;34.70;;;;;;5062137;28;19959;-55
2022/03/25 08:42:20;;;;;;;;;;;23.90;34.50;;;;;;5053057;28;19920;-55
2022/03/25 08:44:45;;;;;;;;;;;24.00;34.40;;;;;;5055493;28;19913;-55
2022/03/25 08:47:11;;;;;;;;;;;24.00;34.40;;;;;;5072081;28;19954;-55
2022/03/25 08:49:36;;;;;;;;;;;24.00;34.50;;;;;;5058923;28;20000;-55
2022/03/25 08:52:02;;;;;;;;;;;24.10;34.60;;;;;;5058479;28;19913;-55
2022/03/25 08:54:27;;;;;;;;;;;24.10;34.40;;;;;;5058826;28;19981;-54
2022/03/25 08:56:53;;;;;;;;;;;24.10;34.40;;;;;;5071657;28;20328;-55
2022/03/25 08:59:19;;;;;;;;;;;24.10;34.40;;;;;;5072235;28;20293;-55
2022/03/25 09:01:45;;;;;;;;;;;24.10;34.40;;;;;;5072325;28;20015;-55
2022/03/25 09:04:10;;;;;;;;;;;24.10;34.30;;;;;;5071444;28;19920;-56
2022/03/25 09:06:36;;;;;;;;;;;24.10;34.40;;;;;;5072030;28;19908;-55
2022/03/25 09:09:01;;;;;;;;;;;24.10;34.50;;;;;;5071228;28;19912;-56
2022/03/25 09:11:26;;;;;;;;;;;24.10;34.50;;;;;;5070378;28;19912;-55
2022/03/25 09:13:52;;;;;;;;;;;24.10;34.60;;;;;;5056204;28;19913;-55
2022/03/25 09:16:19;;;;;;;;;;;24.00;34.70;;;;;;5068439;28;20416;-56
2022/03/25 09:18:44;;;;;;;;;;;23.90;34.90;;;;;;5070162;28;19973;-54
2022/03/25 09:21:10;;;;;;;;;;;23.90;35.10;;;;;;5062893;28;19952;-54
2022/03/25 09:23:35;;;;;;;;;;;23.80;35.20;;;;;;5055526;28;20379;-55
2022/03/25 09:26:01;;;;;;;;;;;23.80;35.20;;;;;;5070914;28;19908;-54
2022/03/25 09:28:27;;;;;;;;;;;23.70;35.30;;;;;;5066093;28;20015;-54
2022/03/25 09:30:53;;;;;;;;;;;23.80;35.50;;;;;;5060869;28;19913;-54
2022/03/25 09:33:18;;;;;;;;;;;23.80;35.50;;;;;;5066074;28;19913;-54
2022/03/25 09:35:45;;;;;;;;;;;23.80;35.50;;;;;;5068918;28;19916;-55
2022/03/25 09:38:11;;;;;;;;;;;23.80;35.50;;;;;;5059595;28;20424;-54
2022/03/25 09:40:37;;;;;;;;;;;23.90;35.60;;;;;;5059230;28;19966;-53
2022/03/25 09:43:02;;;;;;;;;;;23.90;35.50;;;;;;5066676;28;20388;-56
2022/03/25 09:45:30;;;;;;;;;;;23.90;35.50;;;;;;5070585;28;19915;-56
2022/03/25 09:47:55;;;;;;;;;;;23.90;35.40;;;;;;5064028;28;19960;-56
2022/03/25 09:50:22;;;;;;;;;;;23.90;35.40;;;;;;5069871;28;19955;-56
2022/03/25 09:52:47;;;;;;;;;;;23.90;35.40;;;;;;5071998;28;19989;-54
2022/03/25 09:55:16;;;;;;;;;;;24.00;35.50;;;;;;5060485;28;20434;-54
2022/03/25 09:57:41;;;;;;;;;;;24.00;35.40;;;;;;5065551;28;20002;-54
2022/03/25 10:00:07;;;;;;;;;;;24.00;35.40;;;;;;5066113;28;19909;-55
2022/03/25 10:02:32;;;;;;;;;;;24.00;35.60;;;;;;5072860;28;19919;-54
2022/03/25 10:04:58;;;;;;;;;;;24.00;35.50;;;;;;5073545;28;20053;-54
2022/03/25 10:07:25;;;;;;;;;;;24.00;35.40;;;;;;5073314;28;19966;-53
2022/03/25 10:10:06;;;;;;;;;;;24.10;35.40;;;;;;5074348;28;19918;-54
2022/03/25 10:12:32;;;;;;;;;;;24.20;35.20;;;;;;5072582;28;19912;-54
2022/03/25 10:15:25;;;;;;;;;;;24.30;35.10;;;;;;5071362;28;19908;-54
2022/03/25 10:17:54;;;;;;;;;;;24.40;35.00;;;;;;5073044;28;19920;-54
2022/03/25 10:20:21;;;;;;;;;;;24.50;35.60;;;;;;5065684;28;19950;-54
2022/03/25 10:22:56;;;;;;;;;;;24.50;34.90;;;;;;5066053;28;19912;-54
2022/03/25 10:25:34;;;;;;;;;;;24.60;34.80;;;;;;5074032;28;19908;-54
2022/03/25 10:28:00;;;;;;;;;;;24.60;34.80;;;;;;5073834;28;19916;-54
2022/03/25 10:30:38;;;;;;;;;;;24.70;34.80;;;;;;5064296;28;20286;-55
2022/03/25 10:33:08;;;;;;;;;;;24.60;34.80;;;;;;5073700;28;20252;-55
2022/03/25 10:35:34;;;;;;;;;;;24.60;35.00;;;;;;5075045;28;19915;-55
2022/03/25 10:37:59;;;;;;;;;;;24.50;35.00;;;;;;5068413;28;19935;-55
2022/03/25 10:40:25;;;;;;;;;;;24.50;35.20;;;;;;5062164;28;19916;-54
2022/03/25 10:43:06;;;;;;;;;;;24.50;35.20;;;;;;5072731;28;20368;-53
2022/03/25 10:45:32;;;;;;;;;;;24.40;35.10;;;;;;5067098;28;20343;-55
2022/03/25 10:48:10;;;;;;;;;;;24.40;35.30;;;;;;5071935;28;19912;-56
2022/03/25 10:50:52;;;;;;;;;;;24.40;35.30;;;;;;5072913;28;20376;-56
2022/03/25 10:53:17;;;;;;;;;;;24.40;35.30;;;;;;5064487;28;20026;-56
2022/03/25 10:55:44;;;;;;;;;;;24.40;35.40;;;;;;5064505;28;20031;-54
2022/03/25 10:58:09;;;;;;;;;;;24.40;35.40;;;;;;5064635;28;19917;-55
2022/03/25 11:00:35;;;;;;;;;;;24.40;35.40;;;;;;5067446;28;19915;-54
2022/03/25 11:03:00;;;;;;;;;;;24.40;35.60;;;;;;5065678;28;19920;-54
2022/03/25 11:05:25;;;;;;;;;;;24.40;35.50;;;;;;5071299;28;19909;-54
2022/03/25 11:07:51;;;;;;;;;;;24.50;35.60;;;;;;5070705;28;19972;-55
2022/03/25 11:10:17;;;;;;;;;;;24.40;35.60;;;;;;5067261;28;19917;-55
2022/03/25 11:12:43;;;;;;;;;;;24.40;35.60;;;;;;5064110;28;19921;-54
2022/03/25 11:15:09;;;;;;;;;;;24.40;35.60;;;;;;5067744;28;19927;-54
2022/03/25 11:17:36;;;;;;;;;;;24.50;35.60;;;;;;5070009;28;20324;-55
2022/03/25 11:20:01;;;;;;;;;;;24.40;35.50;;;;;;5071978;28;20332;-56
2022/03/25 11:22:27;;;;;;;;;;;24.40;35.50;;;;;;5067993;28;19947;-56
2022/03/25 11:24:53;;;;;;;;;;;24.40;35.60;;;;;;5070205;28;19913;-55
2022/03/25 11:27:24;;;;;;;;;;;24.50;35.50;;;;;;5082827;28;19918;-55
2022/03/25 11:29:50;;;;;;;;;;;24.60;35.50;;;;;;5064453;28;19969;-55
2022/03/25 11:32:15;;;;;;;;;;;24.70;35.40;;;;;;5068003;28;20348;-56
2022/03/25 11:35:04;;;;;;;;;;;24.70;35.30;;;;;;5068403;28;19962;-55
2022/03/25 11:37:30;;;;;;;;;;;24.80;35.40;;;;;;5067200;28;19912;-54
2022/03/25 11:40:25;;;;;;;;;;;24.80;35.30;;;;;;5068655;28;19914;-55
2022/03/25 11:42:51;;;;;;;;;;;24.80;35.20;;;;;;5065776;28;20377;-55
2022/03/25 11:45:31;;;;;;;;;;;24.90;35.20;;;;;;5072035;28;20375;-55
2022/03/25 11:47:59;;;;;;;;;;;24.90;35.20;;;;;;5072338;28;20083;-55
2022/03/25 11:50:29;;;;;;;;;;;24.90;35.90;;;;;;5063634;28;20011;-56
2022/03/25 11:52:54;;;;;;;;;;;24.90;35.30;;;;;;5067936;28;19916;-56
2022/03/25 11:55:19;;;;;;;;;;;24.90;35.40;;;;;;5070581;28;19908;-54
2022/03/25 11:57:46;;;;;;;;;;;24.90;35.50;;;;;;5067493;28;20436;-54
2022/03/25 12:00:21;;;;;;;;;;;24.80;35.40;;;;;;5066350;28;19978;-55
2022/03/25 12:02:58;;;;;;;;;;;24.90;35.60;;;;;;5065561;28;19934;-55
2022/03/25 12:05:24;;;;;;;;;;;24.90;35.70;;;;;;5063016;28;20380;-55
2022/03/25 12:08:08;;;;;;;;;;;24.80;35.60;;;;;;5061666;28;19937;-56
2022/03/25 12:10:42;;;;;;;;;;;24.80;35.60;;;;;;5063709;28;19920;-55
2022/03/25 12:13:08;;;;;;;;;;;24.90;35.80;;;;;;5071928;28;20388;-55
2022/03/25 12:15:43;;;;;;;;;;;24.90;35.70;;;;;;5059907;28;19920;-56
2022/03/25 12:18:27;;;;;;;;;;;24.90;35.80;;;;;;5057366;28;19920;-55
2022/03/25 12:20:53;;;;;;;;;;;24.80;35.80;;;;;;5057934;28;19951;-55
2022/03/25 12:23:18;;;;;;;;;;;24.80;35.80;;;;;;5056332;28;19956;-56
2022/03/25 12:25:44;;;;;;;;;;;24.90;35.90;;;;;;5056319;28;19927;-55
2022/03/25 12:28:10;;;;;;;;;;;24.90;35.80;;;;;;5055999;28;19970;-55
2022/03/25 12:30:38;;;;;;;;;;;24.90;35.90;;;;;;5059113;28;20372;-55
2022/03/25 12:33:05;;;;;;;;;;;24.90;35.80;;;;;;5057642;28;20384;-57
2022/03/25 12:35:30;;;;;;;;;;;24.90;35.80;;;;;;5056487;28;19944;-54
2022/03/25 12:38:14;;;;;;;;;;;24.90;35.80;;;;;;5055831;28;19920;-55
2022/03/25 12:40:39;;;;;;;;;;;25.00;35.90;;;;;;5059130;28;19916;-57
2022/03/25 12:43:08;;;;;;;;;;;24.90;35.90;;;;;;5057877;28;19955;-55
2022/03/25 12:45:51;;;;;;;;;;;24.90;35.90;;;;;;5060167;28;19960;-55
2022/03/25 12:48:17;;;;;;;;;;;25.00;36.10;;;;;;5060836;28;19916;-54
2022/03/25 12:50:42;;;;;;;;;;;25.00;36.00;;;;;;5056710;28;20368;-54
2022/03/25 12:53:08;;;;;;;;;;;24.90;35.80;;;;;;5059262;28;19913;-55
2022/03/25 12:55:33;;;;;;;;;;;25.00;35.90;;;;;;5058272;28;20499;-55
2022/03/25 12:58:02;;;;;;;;;;;25.00;35.80;;;;;;5059570;28;19916;-56
2022/03/25 13:00:31;;;;;;;;;;;25.00;35.80;;;;;;5056798;28;19920;-56
2022/03/25 13:02:57;;;;;;;;;;;25.00;35.80;;;;;;5054789;28;19912;-55
2022/03/25 13:05:24;;;;;;;;;;;25.00;35.90;;;;;;5057793;28;19922;-55
2022/03/25 13:07:52;;;;;;;;;;;25.10;35.80;;;;;;5052447;28;19976;-54
2022/03/25 13:10:18;;;;;;;;;;;25.10;35.90;;;;;;5054793;28;20079;-55
2022/03/25 13:12:44;;;;;;;;;;;25.10;35.80;;;;;;5062718;28;20034;-55
2022/03/25 13:15:11;;;;;;;;;;;25.10;35.90;;;;;;5061707;28;20003;-56
2022/03/25 13:17:43;;;;;;;;;;;25.10;35.90;;;;;;5064144;28;19912;-56
2022/03/25 13:20:19;;;;;;;;;;;25.10;35.80;;;;;;5063926;28;19912;-54
2022/03/25 13:23:00;;;;;;;;;;;25.10;35.80;;;;;;5061795;28;19927;-56
2022/03/25 13:25:30;;;;;;;;;;;25.10;36.40;;;;;;5060002;28;19921;-56
2022/03/25 13:27:56;;;;;;;;;;;25.20;35.90;;;;;;5064326;28;19970;-56
2022/03/25 13:30:22;;;;;;;;;;;25.20;35.80;;;;;;5064352;28;20007;-56
2022/03/25 13:32:55;;;;;;;;;;;25.20;35.90;;;;;;5062799;28;19913;-55
2022/03/25 13:35:21;;;;;;;;;;;25.10;35.80;;;;;;5062576;28;19958;-55
2022/03/25 13:37:46;;;;;;;;;;;25.10;35.80;;;;;;5062230;28;19912;-54
2022/03/25 13:40:32;;;;;;;;;;;25.20;35.90;;;;;;5064844;28;19924;-54
2022/03/25 13:42:58;;;;;;;;;;;25.20;35.90;;;;;;5063987;28;19986;-55
2022/03/25 13:45:23;;;;;;;;;;;25.20;35.90;;;;;;5063514;28;20562;-55
2022/03/25 13:47:58;;;;;;;;;;;25.20;35.90;;;;;;5060985;28;19916;-55
2022/03/25 13:50:23;;;;;;;;;;;25.20;35.90;;;;;;5066057;28;19937;-55
2022/03/25 13:52:53;;;;;;;;;;;25.20;35.80;;;;;;5062326;28;19975;-57
2022/03/25 13:55:19;;;;;;;;;;;25.20;36.00;;;;;;5063297;28;19919;-56
2022/03/25 13:57:54;;;;;;;;;;;25.30;36.10;;;;;;5062336;28;19917;-55
2022/03/25 14:00:27;;;;;;;;;;;25.30;36.10;;;;;;5059693;28;19962;-56
2022/03/25 14:02:53;;;;;;;;;;;25.30;36.10;;;;;;5062016;28;20409;-56
2022/03/25 14:05:23;;;;;;;;;;;25.30;36.10;;;;;;5065650;28;20007;-56
2022/03/25 14:07:49;;;;;;;;;;;25.30;36.00;;;;;;5061727;28;19924;-55
2022/03/25 14:10:15;;;;;;;;;;;25.30;36.10;;;;;;5059692;28;19925;-56
2022/03/25 14:12:41;;;;;;;;;;;25.30;36.10;;;;;;5060875;28;19925;-55
2022/03/25 14:15:07;;;;;;;;;;;25.30;36.10;;;;;;5059957;28;19916;-56
2022/03/25 14:17:37;;;;;;;;;;;25.40;36.10;;;;;;5061376;28;19920;-54
2022/03/25 14:20:08;;;;;;;;;;;25.30;36.10;;;;;;5062015;28;20341;-55